createdAt,value
2022-08-22T00:01:42.623Z,15.60
2022-08-22T00:03:03.228Z,17.20
2022-08-22T00:04:36.550Z,15.50
2022-08-22T00:07:23.811Z,15.40
2022-08-22T00:09:53.342Z,15.40
2022-08-22T00:12:49.191Z,15.30
2022-08-22T00:15:42.036Z,15.30
2022-08-22T00:18:36.195Z,15.20
2022-08-22T00:21:17.616Z,15.20
2022-08-22T00:23:52.544Z,15.10
2022-08-22T00:26:45.773Z,15.10
2022-08-22T00:29:21.686Z,15.10
2022-08-22T00:32:03.948Z,15.00
2022-08-22T00:34:36.427Z,15.00
2022-08-22T00:37:20.227Z,15.00
2022-08-22T00:40:03.436Z,15.00
2022-08-22T00:42:52.128Z,14.90
2022-08-22T00:45:38.743Z,14.90
2022-08-22T00:48:27.116Z,14.90
2022-08-22T00:51:32.135Z,14.80
2022-08-22T00:54:17.862Z,14.80
2022-08-22T00:57:23.480Z,14.70
2022-08-22T01:00:12.816Z,14.70
2022-08-22T01:03:10.925Z,14.60
2022-08-22T01:06:07.402Z,14.60
2022-08-22T01:08:52.945Z,14.50
2022-08-22T01:11:36.936Z,14.60
2022-08-22T01:14:34.569Z,14.50
2022-08-22T01:17:47.361Z,14.50
2022-08-22T01:20:38.808Z,14.40
2022-08-22T01:23:14.186Z,14.40
2022-08-22T01:26:19.491Z,14.30
2022-08-22T01:29:28.802Z,14.30
2022-08-22T01:32:32.955Z,14.30
2022-08-22T01:35:19.623Z,14.30
2022-08-22T01:38:25.824Z,14.30
2022-08-22T01:41:17.074Z,14.30
2022-08-22T01:44:01.473Z,14.30
2022-08-22T01:46:35.289Z,14.20
2022-08-22T01:49:11.123Z,14.10
2022-08-22T01:51:47.957Z,14.00
2022-08-22T01:54:29.898Z,14.00
2022-08-22T01:57:02.179Z,14.10
2022-08-22T02:00:01.942Z,14.00
2022-08-22T02:02:35.392Z,14.00
2022-08-22T02:05:27.546Z,14.10
2022-08-22T02:08:21.979Z,14.10
2022-08-22T02:11:04.172Z,14.00
2022-08-22T02:13:46.340Z,14.10
2022-08-22T02:17:00.929Z,14.00
2022-08-22T02:19:40.721Z,14.00
2022-08-22T02:22:30.917Z,13.90
2022-08-22T02:25:20.224Z,13.90
2022-08-22T02:27:52.220Z,14.00
2022-08-22T02:30:25.308Z,13.90
2022-08-22T02:33:00.473Z,13.90
2022-08-22T02:35:33.383Z,13.90
2022-08-22T02:38:06.599Z,13.80
2022-08-22T02:40:57.745Z,13.80
2022-08-22T02:43:34.454Z,13.80
2022-08-22T02:46:16.059Z,13.80
2022-08-22T02:48:52.476Z,13.80
2022-08-22T02:51:53.425Z,13.80
2022-08-22T02:54:27.720Z,13.80
2022-08-22T02:57:14.708Z,13.80
2022-08-22T03:00:04.426Z,13.80
2022-08-22T03:02:42.056Z,13.80
2022-08-22T03:05:23.633Z,13.80
2022-08-22T03:08:03.490Z,13.80
2022-08-22T03:10:38.204Z,13.80
2022-08-22T03:13:12.043Z,13.70
2022-08-22T03:15:49.349Z,13.70
2022-08-22T03:18:32.212Z,13.60
2022-08-22T03:21:22.584Z,13.60
2022-08-22T03:23:59.649Z,13.70
2022-08-22T03:26:38.973Z,13.70
2022-08-22T03:29:13.239Z,13.70
2022-08-22T03:32:04.303Z,13.70
2022-08-22T03:34:30.768Z,13.80
2022-08-22T03:37:21.023Z,13.80
2022-08-22T03:39:50.502Z,13.90
2022-08-22T03:42:52.224Z,13.90
2022-08-22T03:45:33.694Z,13.90
2022-08-22T03:48:23.312Z,14.00
2022-08-22T03:51:08.786Z,13.90
2022-08-22T03:54:01.892Z,13.90
2022-08-22T03:57:00.462Z,14.00
2022-08-22T03:59:55.594Z,13.90
2022-08-22T04:02:43.620Z,13.90
2022-08-22T04:05:56.886Z,13.90
2022-08-22T04:08:45.149Z,13.90
2022-08-22T04:11:39.330Z,13.90
2022-08-22T04:14:50.695Z,13.90
2022-08-22T04:17:39.516Z,14.00
2022-08-22T04:20:37.880Z,14.00
2022-08-22T04:23:07.304Z,13.90
2022-08-22T04:25:38.797Z,14.00
2022-08-22T04:28:08.776Z,13.90
2022-08-22T04:30:45.651Z,14.00
2022-08-22T04:33:21.204Z,14.10
2022-08-22T04:36:13.399Z,14.10
2022-08-22T04:38:47.678Z,14.10
2022-08-22T04:41:24.500Z,14.10
2022-08-22T04:44:01.691Z,14.20
2022-08-22T04:46:48.802Z,14.20
2022-08-22T04:49:29.276Z,14.30
2022-08-22T04:52:36.676Z,14.30
2022-08-22T04:55:17.613Z,14.40
2022-08-22T04:58:01.030Z,14.40
2022-08-22T05:00:39.119Z,14.50
2022-08-22T05:03:11.389Z,14.60
2022-08-22T05:05:43.533Z,14.80
2022-08-22T05:08:16.648Z,14.90
2022-08-22T05:10:46.930Z,15.00
2022-08-22T05:13:31.162Z,14.90
2022-08-22T05:16:03.329Z,15.10
2022-08-22T05:18:35.816Z,15.20
2022-08-22T05:21:07.549Z,15.30
2022-08-22T05:23:51.926Z,15.40
2022-08-22T05:26:20.001Z,15.50
2022-08-22T05:28:54.786Z,15.50
2022-08-22T05:31:31.557Z,15.50
2022-08-22T05:34:04.824Z,15.70
2022-08-22T05:36:37.939Z,15.80
2022-08-22T05:39:18.620Z,15.90
2022-08-22T05:41:45.987Z,16.10
2022-08-22T05:44:38.035Z,16.20
2022-08-22T05:47:23.893Z,16.40
2022-08-22T05:50:14.775Z,16.60
2022-08-22T05:52:59.247Z,16.70
2022-08-22T05:55:57.889Z,16.50
2022-08-22T05:58:52.539Z,16.80
2022-08-22T06:01:30.107Z,16.90
2022-08-22T06:04:04.365Z,16.90
2022-08-22T06:06:33.651Z,16.90
2022-08-22T06:09:10.243Z,16.60
2022-08-22T06:11:50.106Z,17.00
2022-08-22T06:14:45.541Z,17.30
2022-08-22T06:17:18.658Z,17.60
2022-08-22T06:19:48.345Z,18.00
2022-08-22T06:22:19.801Z,18.30
2022-08-22T06:24:48.129Z,18.40
2022-08-22T06:27:20.659Z,18.40
2022-08-22T06:29:50.869Z,18.40
2022-08-22T06:32:59.126Z,18.30
2022-08-22T06:35:55.458Z,18.50
2022-08-22T06:38:28.465Z,18.70
2022-08-22T06:40:56.216Z,19.00
2022-08-22T06:43:24.966Z,19.40
2022-08-22T06:45:52.983Z,19.50
2022-08-22T06:48:23.503Z,19.50
2022-08-22T06:50:56.065Z,20.10
2022-08-22T06:53:33.327Z,20.30
2022-08-22T06:56:03.417Z,20.30
2022-08-22T06:58:34.440Z,20.80
2022-08-22T07:01:12.052Z,21.00
2022-08-22T07:03:46.845Z,21.70
2022-08-22T07:06:16.074Z,22.80
2022-08-22T07:08:43.802Z,22.90
2022-08-22T07:11:25.569Z,22.60
2022-08-22T07:14:03.678Z,23.30
2022-08-22T07:16:35.690Z,22.60
2022-08-22T07:19:02.192Z,23.40
2022-08-22T07:21:41.257Z,23.60
2022-08-22T07:24:09.773Z,23.70
2022-08-22T07:26:53.267Z,24.10
2022-08-22T07:29:42.770Z,23.90
2022-08-22T07:32:18.645Z,23.70
2022-08-22T07:34:50.979Z,23.90
2022-08-22T07:37:40.115Z,23.70
2022-08-22T07:40:25.437Z,24.30
2022-08-22T07:43:00.323Z,24.00
2022-08-22T07:45:46.903Z,24.60
2022-08-22T07:48:53.404Z,24.20
2022-08-22T07:51:36.153Z,24.50
2022-08-22T07:54:09.995Z,24.70
2022-08-22T07:56:42.303Z,24.10
2022-08-22T07:59:14.556Z,25.20
2022-08-22T08:01:51.010Z,25.70
2022-08-22T08:04:21.360Z,25.80
2022-08-22T08:06:52.823Z,25.80
2022-08-22T08:09:20.233Z,26.80
2022-08-22T08:11:51.413Z,26.20
2022-08-22T08:14:21.656Z,26.80
2022-08-22T08:17:06.034Z,26.10
2022-08-22T08:19:39.981Z,27.10
2022-08-22T08:22:06.784Z,26.90
2022-08-22T08:24:41.527Z,27.40
2022-08-22T08:27:35.218Z,27.30
2022-08-22T08:30:15.284Z,27.70
2022-08-22T08:32:43.625Z,28.60
2022-08-22T08:35:20.216Z,27.30
2022-08-22T08:38:00.690Z,27.30
2022-08-22T08:40:32.960Z,26.80
2022-08-22T08:43:42.255Z,27.70
2022-08-22T08:46:25.476Z,27.80
2022-08-22T08:49:14.022Z,27.50
2022-08-22T08:52:03.110Z,27.60
2022-08-22T08:54:50.043Z,28.40
2022-08-22T08:57:47.693Z,27.80
2022-08-22T09:00:42.753Z,27.60
2022-08-22T09:03:52.415Z,27.80
2022-08-22T09:10:18.793Z,28.40
2022-08-22T09:13:12.481Z,29.40
2022-08-22T09:16:15.125Z,28.10
2022-08-22T09:19:20.268Z,28.90
2022-08-22T09:21:52.639Z,29.10
2022-08-22T09:24:32.805Z,29.30
2022-08-22T09:27:08.447Z,29.70
2022-08-22T09:32:49.797Z,28.90
2022-08-22T09:35:44.191Z,28.60
2022-08-22T09:38:23.037Z,28.40
2022-08-22T09:40:15.633Z,29.20
2022-08-22T09:40:16.404Z,28.90
2022-08-22T09:41:01.435Z,29.00
2022-08-22T09:43:41.840Z,28.60
2022-08-22T09:46:31.427Z,29.30
2022-08-22T09:49:08.852Z,29.30
2022-08-22T09:51:49.009Z,29.10
2022-08-22T09:54:40.426Z,29.30
2022-08-22T09:57:17.982Z,30.10
2022-08-22T10:00:16.863Z,30.70
2022-08-22T10:03:14.207Z,30.40
2022-08-22T10:05:46.956Z,30.30
2022-08-22T10:08:20.009Z,30.60
2022-08-22T10:11:07.004Z,30.60
2022-08-22T10:14:00.465Z,30.30
2022-08-22T10:16:37.151Z,30.30
2022-08-22T10:19:26.187Z,30.60
2022-08-22T10:22:20.912Z,30.10
2022-08-22T10:25:16.301Z,29.80
2022-08-22T10:28:14.937Z,29.90
2022-08-22T10:30:59.376Z,30.50
2022-08-22T10:33:59.223Z,31.10
2022-08-22T10:36:38.572Z,31.40
2022-08-22T10:39:11.821Z,32.00
2022-08-22T10:42:02.044Z,32.00
2022-08-22T10:44:43.205Z,31.20
2022-08-22T10:47:19.076Z,31.20
2022-08-22T10:50:02.736Z,32.00
2022-08-22T10:52:45.533Z,30.90
2022-08-22T10:55:25.020Z,32.10
2022-08-22T10:58:09.774Z,32.00
2022-08-22T11:00:46.507Z,32.20
2022-08-22T11:03:26.624Z,31.40
2022-08-22T11:06:03.577Z,30.50
2022-08-22T11:08:47.737Z,30.60
2022-08-22T11:11:20.171Z,30.70
2022-08-22T11:14:09.688Z,30.90
2022-08-22T11:16:56.870Z,31.00
2022-08-22T11:19:57.209Z,30.70
2022-08-22T11:23:08.072Z,30.40
2022-08-22T11:26:14.405Z,31.30
2022-08-22T11:29:13.251Z,30.80
2022-08-22T11:32:06.571Z,31.30
2022-08-22T11:34:57.275Z,31.30
2022-08-22T11:37:43.686Z,29.80
2022-08-22T11:40:32.847Z,29.20
2022-08-22T11:43:28.949Z,28.90
2022-08-22T11:46:19.053Z,29.80
2022-08-22T11:49:25.607Z,31.00
2022-08-22T11:52:05.540Z,31.30
2022-08-22T11:54:45.077Z,31.20
2022-08-22T11:57:17.753Z,32.00
2022-08-22T12:00:06.699Z,31.70
2022-08-22T12:02:41.857Z,30.00
2022-08-22T12:05:24.616Z,30.00
2022-08-22T12:08:00.198Z,29.50
2022-08-22T12:10:36.638Z,29.20
2022-08-22T12:13:16.013Z,29.80
2022-08-22T12:15:47.623Z,30.00
2022-08-22T12:18:45.036Z,30.20
2022-08-22T12:21:24.383Z,30.70
2022-08-22T12:24:19.122Z,30.40
2022-08-22T12:27:36.051Z,30.40
2022-08-22T12:30:15.101Z,30.50
2022-08-22T12:32:49.266Z,29.90
2022-08-22T12:35:41.653Z,30.10
2022-08-22T12:38:49.083Z,30.10
2022-08-22T12:41:28.518Z,29.40
2022-08-22T12:44:41.393Z,30.00
2022-08-22T12:47:32.033Z,28.90
2022-08-22T12:50:13.917Z,30.00
2022-08-22T12:53:03.080Z,29.50
2022-08-22T12:55:33.305Z,29.30
2022-08-22T12:58:44.211Z,29.60
2022-08-22T13:01:11.334Z,29.60
2022-08-22T13:03:48.853Z,29.70
2022-08-22T13:06:33.692Z,29.50
2022-08-22T13:09:01.179Z,29.80
2022-08-22T13:11:30.880Z,29.60
2022-08-22T13:14:00.392Z,29.80
2022-08-22T13:16:49.065Z,29.50
2022-08-22T13:19:22.169Z,29.80
2022-08-22T13:21:59.295Z,30.30
2022-08-22T13:24:52.355Z,29.70
2022-08-22T13:27:25.492Z,29.30
2022-08-22T13:30:00.395Z,29.50
2022-08-22T13:32:44.434Z,29.60
2022-08-22T13:35:23.906Z,28.90
2022-08-22T13:37:56.340Z,28.70
2022-08-22T13:40:30.562Z,29.10
2022-08-22T13:43:07.248Z,29.20
2022-08-22T13:45:35.835Z,29.30
2022-08-22T13:48:11.685Z,28.90
2022-08-22T13:51:01.632Z,28.90
2022-08-22T13:53:36.739Z,28.90
2022-08-22T13:56:15.462Z,29.10
2022-08-22T13:58:49.898Z,28.70
2022-08-22T14:01:32.216Z,28.60
2022-08-22T14:04:31.887Z,28.50
2022-08-22T14:07:06.188Z,27.80
2022-08-22T14:09:56.229Z,27.90
2022-08-22T14:12:33.521Z,27.70
2022-08-22T14:15:23.525Z,27.30
2022-08-22T14:17:56.499Z,27.40
2022-08-22T14:20:32.581Z,27.20
2022-08-22T14:23:04.923Z,27.30
2022-08-22T14:25:36.243Z,27.20
2022-08-22T14:28:09.322Z,28.00
2022-08-22T14:30:49.309Z,27.70
2022-08-22T14:33:24.573Z,27.40
2022-08-22T14:35:55.163Z,27.50
2022-08-22T14:38:31.651Z,27.30
2022-08-22T14:41:13.439Z,27.00
2022-08-22T14:43:56.914Z,27.10
2022-08-22T14:46:30.023Z,27.20
2022-08-22T14:49:20.424Z,27.10
2022-08-22T14:51:58.928Z,27.50
2022-08-22T14:54:29.077Z,27.40
2022-08-22T14:56:56.880Z,27.40
2022-08-22T14:59:37.092Z,26.70
2022-08-22T15:02:10.063Z,27.10
2022-08-22T15:04:40.106Z,27.40
2022-08-22T15:07:08.646Z,26.70
2022-08-22T15:09:41.759Z,26.80
2022-08-22T15:12:27.016Z,26.90
2022-08-22T15:14:57.642Z,26.70
2022-08-22T15:17:39.048Z,27.00
2022-08-22T15:20:11.727Z,26.80
2022-08-22T15:22:40.616Z,27.40
2022-08-22T15:25:26.111Z,27.70
2022-08-22T15:27:59.916Z,28.00
2022-08-22T15:30:44.246Z,27.90
2022-08-22T15:33:15.917Z,27.70
2022-08-22T15:35:44.427Z,27.30
2022-08-22T15:38:48.515Z,27.50
2022-08-22T15:41:36.667Z,27.40
2022-08-22T15:44:32.283Z,27.10
2022-08-22T15:47:27.617Z,27.30
2022-08-22T15:49:58.893Z,26.80
2022-08-22T15:52:31.711Z,26.70
2022-08-22T15:55:14.522Z,26.60
2022-08-22T15:57:48.113Z,26.60
2022-08-22T16:00:34.208Z,26.80
2022-08-22T16:03:25.470Z,27.00
2022-08-22T16:05:57.859Z,27.40
2022-08-22T16:08:47.089Z,27.20
2022-08-22T16:11:30.947Z,26.90
2022-08-22T16:14:18.751Z,26.70
2022-08-22T16:16:57.806Z,26.80
2022-08-22T16:19:27.184Z,26.20
2022-08-22T16:21:56.732Z,26.30
2022-08-22T16:24:23.783Z,26.00
2022-08-22T16:26:51.416Z,26.20
2022-08-22T16:29:23.137Z,26.00
2022-08-22T16:31:49.540Z,26.10
2022-08-22T16:34:16.176Z,26.30
2022-08-22T16:37:08.175Z,26.30
2022-08-22T16:39:50.183Z,25.60
2022-08-22T16:42:19.480Z,25.70
2022-08-22T16:44:56.466Z,25.70
2022-08-22T16:47:41.620Z,25.50
2022-08-22T16:50:22.488Z,25.10
2022-08-22T16:52:59.703Z,24.80
2022-08-22T16:55:28.782Z,24.90
2022-08-22T16:58:12.338Z,24.70
2022-08-22T17:00:49.795Z,24.60
2022-08-22T17:03:44.212Z,24.70
2022-08-22T17:06:41.427Z,24.70
2022-08-22T17:09:17.249Z,24.30
2022-08-22T17:11:58.032Z,24.30
2022-08-22T17:14:52.675Z,24.00
2022-08-22T17:17:41.189Z,24.10
2022-08-22T17:20:33.503Z,23.90
2022-08-22T17:23:03.493Z,24.00
2022-08-22T17:25:58.974Z,23.60
2022-08-22T17:28:42.226Z,23.60
2022-08-22T17:31:14.756Z,23.60
2022-08-22T17:33:41.158Z,23.60
2022-08-22T17:36:32.001Z,23.60
2022-08-22T17:39:33.239Z,23.70
2022-08-22T17:42:24.363Z,23.70
2022-08-22T17:45:03.542Z,23.50
2022-08-22T17:48:00.919Z,23.50
2022-08-22T17:50:48.504Z,23.40
2022-08-22T17:53:44.663Z,23.30
2022-08-22T17:56:27.592Z,23.00
2022-08-22T17:59:09.691Z,23.00
2022-08-22T18:01:44.238Z,23.00
2022-08-22T18:04:27.705Z,23.00
2022-08-22T18:07:25.277Z,22.90
2022-08-22T18:09:59.109Z,22.90
2022-08-22T18:12:42.361Z,22.60
2022-08-22T18:15:13.109Z,22.80
2022-08-22T18:17:44.311Z,22.70
2022-08-22T18:20:21.835Z,22.40
2022-08-22T18:22:58.892Z,22.40
2022-08-22T18:25:42.654Z,22.20
2022-08-22T18:28:28.926Z,22.10
2022-08-22T18:31:07.310Z,21.90
2022-08-22T18:33:35.961Z,21.70
2022-08-22T18:36:18.175Z,21.70
2022-08-22T18:39:05.098Z,21.80
2022-08-22T18:41:45.563Z,21.70
2022-08-22T18:44:26.632Z,21.70
2022-08-22T18:46:54.560Z,21.60
2022-08-22T18:49:20.949Z,21.60
2022-08-22T18:52:06.067Z,21.50
2022-08-22T18:54:56.428Z,21.50
2022-08-22T18:57:47.154Z,21.40
2022-08-22T19:00:21.692Z,21.40
2022-08-22T19:03:22.089Z,21.20
2022-08-22T19:06:17.597Z,21.30
2022-08-22T19:09:05.157Z,21.20
2022-08-22T19:12:03.282Z,21.20
2022-08-22T19:14:51.175Z,21.20
2022-08-22T19:17:57.338Z,21.20
2022-08-22T19:20:49.141Z,21.40
2022-08-22T19:23:34.935Z,21.10
2022-08-22T19:26:32.461Z,21.30
2022-08-22T19:29:01.116Z,21.20
2022-08-22T19:31:37.430Z,21.10
2022-08-22T19:34:25.874Z,21.00
2022-08-22T19:37:11.433Z,20.90
2022-08-22T19:40:01.294Z,20.90
2022-08-22T19:42:30.952Z,20.90
2022-08-22T19:45:05.826Z,20.90
2022-08-22T19:47:39.785Z,20.90
2022-08-22T19:50:13.634Z,20.80
2022-08-22T19:53:06.495Z,20.70
2022-08-22T19:55:36.665Z,20.60
2022-08-22T19:58:12.809Z,20.50
2022-08-22T20:01:01.883Z,20.40
2022-08-22T20:03:53.215Z,20.40
2022-08-22T20:06:43.463Z,20.40
2022-08-22T20:09:16.852Z,20.40
2022-08-22T20:12:03.775Z,20.30
2022-08-22T20:14:33.560Z,20.20
2022-08-22T20:17:05.483Z,20.20
2022-08-22T20:19:36.275Z,20.20
2022-08-22T20:22:04.398Z,20.20
2022-08-22T20:25:07.887Z,20.20
2022-08-22T20:28:02.752Z,20.20
2022-08-22T20:30:37.526Z,20.10
2022-08-22T20:33:12.714Z,20.10
2022-08-22T20:35:45.437Z,20.00
2022-08-22T20:38:17.793Z,20.00
2022-08-22T20:41:03.503Z,19.90
2022-08-22T20:44:00.690Z,19.90
2022-08-22T20:46:46.151Z,19.80
2022-08-22T20:49:29.376Z,19.70
2022-08-22T20:51:58.770Z,19.70
2022-08-22T20:54:29.091Z,19.70
2022-08-22T20:57:16.072Z,19.70
2022-08-22T20:59:55.218Z,19.70
2022-08-22T21:02:27.566Z,19.70
2022-08-22T21:05:04.305Z,19.60
2022-08-22T21:07:36.946Z,19.50
2022-08-22T21:10:41.582Z,19.50
2022-08-22T21:13:12.497Z,19.50
2022-08-22T21:15:41.007Z,19.50
2022-08-22T21:18:08.601Z,19.50
2022-08-22T21:20:37.543Z,19.50
2022-08-22T21:23:08.907Z,19.50
2022-08-22T21:25:50.607Z,19.50
2022-08-22T21:28:50.997Z,19.40
2022-08-22T21:31:22.229Z,19.40
2022-08-22T21:33:50.874Z,19.30
2022-08-22T21:36:20.032Z,19.20
2022-08-22T21:38:53.719Z,19.20
2022-08-22T21:41:27.220Z,19.20
2022-08-22T21:43:54.253Z,19.30
2022-08-22T21:46:27.102Z,19.20
2022-08-22T21:49:03.470Z,19.30
2022-08-22T21:51:45.612Z,19.20
2022-08-22T21:54:31.141Z,19.20
2022-08-22T21:57:09.458Z,19.20
2022-08-22T21:59:49.333Z,19.10
2022-08-22T22:02:31.295Z,19.00
2022-08-22T22:05:04.729Z,19.00
2022-08-22T22:07:36.991Z,19.00
2022-08-22T22:10:05.322Z,18.90
2022-08-22T22:12:31.795Z,19.00
2022-08-22T22:14:58.279Z,19.10
2022-08-22T22:17:24.740Z,19.10
2022-08-22T22:19:51.306Z,19.00
2022-08-22T22:22:18.206Z,19.00
2022-08-22T22:24:44.893Z,19.00
2022-08-22T22:27:16.410Z,18.90
2022-08-22T22:29:43.468Z,19.00
2022-08-22T22:32:10.376Z,18.80
2022-08-22T22:34:39.001Z,18.80
2022-08-22T22:37:08.245Z,18.60
2022-08-22T22:39:36.674Z,18.80
2022-08-22T22:42:04.212Z,18.80
2022-08-22T22:44:30.956Z,18.80
2022-08-22T22:46:58.827Z,18.70
2022-08-22T22:49:25.367Z,18.70
2022-08-22T22:51:51.958Z,18.70
2022-08-22T22:54:18.665Z,18.70
2022-08-22T22:56:53.849Z,18.80
2022-08-22T22:59:24.602Z,18.70
2022-08-22T23:02:07.670Z,18.60
2022-08-22T23:04:36.632Z,18.60
2022-08-22T23:07:03.718Z,18.60
2022-08-22T23:09:38.086Z,18.70
2022-08-22T23:12:11.404Z,18.70
2022-08-22T23:14:38.313Z,18.70
2022-08-22T23:17:05.300Z,18.80
2022-08-22T23:19:34.460Z,18.70
2022-08-22T23:22:01.381Z,18.70
2022-08-22T23:24:31.260Z,18.70
2022-08-22T23:26:57.909Z,18.70
2022-08-22T23:29:24.765Z,18.80
2022-08-22T23:31:56.630Z,18.70
2022-08-22T23:34:29.058Z,18.80
2022-08-22T23:36:58.556Z,18.70
2022-08-22T23:39:26.990Z,18.80
2022-08-22T23:41:53.624Z,18.60
2022-08-22T23:44:23.748Z,18.60
2022-08-22T23:46:50.956Z,18.60
2022-08-22T23:49:17.712Z,18.60
2022-08-22T23:51:45.916Z,18.60
2022-08-22T23:54:13.793Z,18.60
2022-08-22T23:56:46.275Z,18.60
2022-08-22T23:59:15.854Z,18.60
